Time;durP1;ratioP1;P1;durP2;ratioP2;P2;SDS_P1;SDS_P2;PMS_P1;PMS_P2;Temp;Humidity;BMP_temperature;BMP_pressure;BME280_temperature;BME280_humidity;BME280_pressure;Samples;Min_cycle;Max_cycle;Signal;HPM_P1;HPM_P2
2022/12/30 00:00:26;;;;;;;9.70;9.20;;;;;;;-1.13;100.00;101213.38;5011641;28;20184;-69
2022/12/30 00:02:51;;;;;;;10.10;9.60;;;;;;;-1.10;100.00;101215.81;5013011;28;20492;-68
2022/12/30 00:05:17;;;;;;;9.73;9.23;;;;;;;-1.13;100.00;101205.56;5015031;28;20057;-69
2022/12/30 00:07:42;;;;;;;10.13;9.63;;;;;;;-1.08;100.00;101205.31;5013335;28;20033;-69
2022/12/30 00:10:08;;;;;;;10.00;9.50;;;;;;;-1.12;100.00;101202.03;5011167;28;20072;-69
2022/12/30 00:35:10;;;;;;;9.73;9.23;;;;;;;-1.28;100.00;101191.59;5010874;28;20037;-69
2022/12/30 00:37:35;;;;;;;9.48;9.05;;;;;;;-1.21;100.00;101185.16;5012454;28;20029;-69
2022/12/30 00:40:01;;;;;;;9.43;9.02;;;;;;;-1.23;100.00;101191.38;5012610;28;20029;-68
2022/12/30 00:45:10;;;;;;;9.70;9.20;;;;;;;-1.20;100.00;101199.00;5010621;28;20156;-68
2022/12/30 00:47:36;;;;;;;9.52;9.13;;;;;;;-1.17;100.00;101204.91;5012303;28;20112;-69
2022/12/30 00:58:14;;;;;;;9.25;8.85;;;;;;;-0.90;100.00;101173.88;5004812;28;20028;-69
2022/12/30 01:00:39;;;;;;;9.80;9.30;;;;;;;-0.80;100.00;101192.47;5007998;28;20042;-68
2022/12/30 01:03:05;;;;;;;9.50;9.10;;;;;;;-0.79;100.00;101195.91;5012242;28;20026;-69
2022/12/30 01:05:30;;;;;;;9.63;9.13;;;;;;;-0.89;100.00;101206.81;5011937;28;20025;-69
2022/12/30 01:07:56;;;;;;;9.13;8.73;;;;;;;-0.84;100.00;101196.97;5012329;28;20481;-68
2022/12/30 01:10:21;;;;;;;9.20;8.80;;;;;;;-0.85;100.00;101181.44;5012103;28;20610;-68
2022/12/30 01:12:46;;;;;;;9.95;9.45;;;;;;;-0.90;100.00;101181.69;5012027;28;20030;-70
2022/12/30 01:15:12;;;;;;;9.45;9.02;;;;;;;-0.99;100.00;101194.41;5012163;28;20473;-68
2022/12/30 01:17:38;;;;;;;9.75;9.25;;;;;;;-0.99;100.00;101205.66;5009876;28;20026;-68
2022/12/30 01:20:06;;;;;;;9.75;9.25;;;;;;;-0.91;100.00;101193.03;5011922;28;20440;-68
2022/12/30 01:22:31;;;;;;;9.45;8.98;;;;;;;-1.08;100.00;101197.50;5011755;28;20030;-68
2022/12/30 01:24:57;;;;;;;9.23;8.82;;;;;;;-1.00;100.00;101197.94;5011760;28;20037;-68
2022/12/30 01:27:22;;;;;;;10.57;9.98;;;;;;;-0.97;100.00;101188.16;5010323;28;20030;-69
2022/12/30 01:29:48;;;;;;;9.90;9.40;;;;;;;-0.87;100.00;101194.56;5010093;28;20156;-69
2022/12/30 01:32:19;;;;;;;9.32;8.93;;;;;;;-1.01;100.00;101191.03;5011622;28;20057;-69
2022/12/30 01:34:45;;;;;;;9.93;9.43;;;;;;;-1.11;100.00;101191.53;5010851;28;20026;-68
2022/12/30 01:37:12;;;;;;;9.40;9.00;;;;;;;-1.17;100.00;101191.88;5012193;28;20022;-68
2022/12/30 01:39:38;;;;;;;10.10;9.60;;;;;;;-1.20;100.00;101189.44;5011322;28;20026;-69
2022/12/30 01:42:16;;;;;;;10.25;9.75;;;;;;;-1.20;100.00;101183.38;5013464;28;20101;-69
2022/12/30 01:45:08;;;;;;;9.90;9.40;;;;;;;-1.14;100.00;101190.88;5013833;28;20069;-69
2022/12/30 01:47:43;;;;;;;10.02;9.52;;;;;;;-1.26;100.00;101196.72;5009469;28;20068;-68
2022/12/30 01:50:11;;;;;;;10.20;9.70;;;;;;;-1.35;100.00;101192.03;5011508;28;20022;-69
2022/12/30 01:52:59;;;;;;;9.77;9.27;;;;;;;-1.31;100.00;101186.56;5013362;28;20125;-69
2022/12/30 01:55:55;;;;;;;9.80;9.30;;;;;;;-1.30;100.00;101187.41;5014231;28;20084;-69
2022/12/30 01:58:30;;;;;;;10.05;9.55;;;;;;;-1.32;100.00;101181.44;5011502;28;20061;-69
2022/12/30 02:00:56;;;;;;;9.35;8.95;;;;;;;-1.37;100.00;101188.66;5013699;28;20084;-69
2022/12/30 02:03:23;;;;;;;9.77;9.27;;;;;;;-1.36;100.00;101183.38;5015345;28;20042;-68
2022/12/30 02:05:49;;;;;;;9.75;9.25;;;;;;;-1.30;100.00;101187.41;5014836;28;20100;-69
2022/12/30 02:08:18;;;;;;;9.32;8.93;;;;;;;-1.43;100.00;101169.84;5014557;28;20117;-69
2022/12/30 02:10:51;;;;;;;10.15;9.65;;;;;;;-1.32;100.00;101186.63;5015164;28;20057;-68
2022/12/30 02:13:19;;;;;;;9.48;9.07;;;;;;;-1.23;100.00;101179.19;5015401;28;20444;-68
2022/12/30 02:16:03;;;;;;;10.02;9.52;;;;;;;-1.26;100.00;101181.09;5014999;28;20021;-69
2022/12/30 02:18:37;;;;;;;9.30;8.90;;;;;;;-1.31;100.00;101185.75;5010504;28;20030;-69
2022/12/30 02:21:11;;;;;;;;;;;;;;;-1.30;100.00;101183.06;5015707;28;20117;-69
2022/12/30 02:23:39;;;;;;;9.93;9.43;;;;;;;-1.28;100.00;101185.56;5010282;28;20403;-69
2022/12/30 02:26:49;;;;;;;9.90;9.40;;;;;;;-1.29;100.00;101179.53;5012252;28;20770;-68
2022/12/30 02:29:27;;;;;;;9.98;9.48;;;;;;;-1.16;100.00;101177.09;4991823;28;20489;-68
2022/12/30 02:32:18;;;;;;;10.00;9.50;;;;;;;-1.27;100.00;101185.47;5012914;28;20026;-68
2022/12/30 02:35:08;;;;;;;10.18;9.68;;;;;;;-1.24;100.00;101172.31;5011423;28;20034;-69
2022/12/30 02:37:41;;;;;;;9.40;9.00;;;;;;;-1.27;100.00;101169.84;5014602;28;20107;-69
2022/12/30 02:40:19;;;;;;;9.75;9.25;;;;;;;-1.24;100.00;101176.69;5014626;28;20034;-69
2022/12/30 02:45:46;;;;;;;9.75;9.25;;;;;;;-1.23;100.00;101170.53;5012855;28;20508;-69
2022/12/30 02:48:17;;;;;;;9.63;9.23;;;;;;;-1.14;100.00;101181.28;5013423;28;20030;-69
2022/12/30 02:53:33;;;;;;;9.45;9.05;;;;;;;-1.09;100.00;101165.44;5013320;28;20036;-69
2022/12/30 02:55:59;;;;;;;9.68;9.18;;;;;;;-1.15;100.00;101165.75;5011799;28;20520;-69
2022/12/30 02:58:29;;;;;;;9.82;9.32;;;;;;;-1.06;100.00;101169.63;5013640;28;20038;-69
2022/12/30 03:04:26;;;;;;;10.05;9.55;;;;;;;-1.15;100.00;101173.56;5013686;28;20080;-68
2022/12/30 03:07:26;;;;;;;9.82;9.32;;;;;;;-1.16;100.00;101184.91;5009631;28;20042;-68
2022/12/30 03:13:22;;;;;;;9.60;9.13;;;;;;;-1.07;100.00;101157.53;5012454;28;20507;-69
2022/12/30 03:16:01;;;;;;;9.60;9.10;;;;;;;-1.02;100.00;101156.34;5012574;28;20034;-69
2022/12/30 03:18:28;;;;;;;9.52;9.05;;;;;;;-1.14;100.00;101157.03;5009182;28;20038;-69
2022/12/30 03:20:54;;;;;;;9.88;9.38;;;;;;;-1.05;100.00;101166.09;5012465;28;20030;-68
2022/12/30 03:28:51;;;;;;;9.80;9.30;;;;;;;-1.15;100.00;101165.75;5011873;28;20043;-70
2022/12/30 03:31:18;;;;;;;9.65;9.15;;;;;;;-1.02;100.00;101168.53;5012433;28;20591;-69
2022/12/30 03:33:44;;;;;;;9.77;9.27;;;;;;;-1.16;100.00;101170.13;5011041;28;20036;-70
2022/12/30 03:36:17;;;;;;;10.02;9.52;;;;;;;-1.18;100.00;101173.72;5013686;28;21743;-68
2022/12/30 03:38:50;;;;;;;9.68;9.18;;;;;;;-1.20;100.00;101165.16;5013512;28;20417;-68
2022/12/30 03:41:18;;;;;;;9.35;8.93;;;;;;;-1.27;100.00;101169.84;5013332;28;20029;-69
2022/12/30 03:43:44;;;;;;;10.02;9.52;;;;;;;-1.14;100.00;101175.25;5013359;28;20100;-69
2022/12/30 03:46:09;;;;;;;9.40;9.00;;;;;;;-1.12;100.00;101187.25;5013266;28;20029;-69
2022/12/30 03:48:35;;;;;;;9.77;9.27;;;;;;;-1.17;100.00;101184.06;5013258;28;20477;-70
2022/12/30 03:51:00;;;;;;;9.70;9.20;;;;;;;-1.01;100.00;101173.66;5012505;28;20045;-69
2022/12/30 03:53:26;;;;;;;9.52;9.05;;;;;;;-1.11;100.00;101178.50;5013402;28;20095;-69
2022/12/30 03:55:51;;;;;;;9.90;9.40;;;;;;;-1.06;100.00;101175.66;5013215;28;20033;-69
2022/12/30 03:58:17;;;;;;;10.18;9.68;;;;;;;-0.91;100.00;101180.00;5013229;28;20033;-69
2022/12/30 04:00:42;;;;;;;10.15;9.65;;;;;;;-0.86;100.00;101184.97;5012638;28;20033;-69
2022/12/30 04:03:08;;;;;;;9.20;8.80;;;;;;;-1.06;100.00;101186.06;5013060;28;20041;-69
2022/12/30 04:05:34;;;;;;;9.50;9.10;;;;;;;-0.95;100.00;101182.91;5011283;28;20041;-69
2022/12/30 04:07:59;;;;;;;9.43;8.95;;;;;;;-0.93;100.00;101178.44;5013135;28;20037;-69
2022/12/30 04:10:25;;;;;;;10.73;10.13;;;;;;;-0.84;100.00;101185.72;5012922;28;20381;-69
2022/12/30 04:12:50;;;;;;;9.85;9.35;;;;;;;-1.02;100.00;101178.94;5012627;28;20030;-69
2022/12/30 04:15:16;;;;;;;9.13;8.73;;;;;;;-1.02;100.00;101177.19;5012874;28;20501;-69
2022/12/30 04:17:41;;;;;;;10.00;9.50;;;;;;;-1.08;100.00;101174.06;5011413;28;20466;-69
2022/12/30 04:20:07;;;;;;;9.85;9.35;;;;;;;-0.99;100.00;101182.22;5010991;28;20040;-69
2022/12/30 04:22:32;;;;;;;9.50;9.10;;;;;;;-0.91;100.00;101180.00;5012779;28;20188;-69
2022/12/30 04:24:58;;;;;;;9.32;8.93;;;;;;;-0.92;100.00;101185.31;5011912;28;20026;-68
2022/12/30 04:27:24;;;;;;;9.85;9.35;;;;;;;-1.12;100.00;101179.44;5011118;28;20397;-68
2022/12/30 04:29:50;;;;;;;10.25;9.75;;;;;;;-1.04;100.00;101189.44;5012455;28;20026;-68
2022/12/30 04:32:15;;;;;;;9.95;9.45;;;;;;;-1.08;100.00;101187.94;5012095;28;20105;-68
2022/12/30 04:34:40;;;;;;;9.80;9.30;;;;;;;-1.12;100.00;101186.41;5010347;28;20038;-69
2022/12/30 04:37:06;;;;;;;9.77;9.27;;;;;;;-1.17;100.00;101198.84;5012709;28;20018;-69
2022/12/30 04:39:31;;;;;;;9.80;9.30;;;;;;;-1.11;100.00;101194.13;5009962;28;20076;-69
2022/12/30 04:41:57;;;;;;;9.90;9.40;;;;;;;-1.06;100.00;101193.88;5010349;28;20029;-69
2022/12/30 04:44:22;;;;;;;10.02;9.52;;;;;;;-1.07;100.00;101200.03;5012384;28;20038;-69
2022/12/30 04:46:48;;;;;;;9.80;9.30;;;;;;;-1.15;100.00;101197.84;5012190;28;20389;-69
2022/12/30 04:49:13;;;;;;;9.32;8.93;;;;;;;-1.26;100.00;101188.91;5010120;28;20029;-68
2022/12/30 04:51:38;;;;;;;10.35;9.85;;;;;;;-1.27;100.00;101193.28;5012158;28;20021;-68
2022/12/30 04:54:04;;;;;;;9.63;9.13;;;;;;;-1.14;100.00;101198.69;5012150;28;20022;-69
2022/12/30 04:56:30;;;;;;;9.90;9.40;;;;;;;-1.26;100.00;101200.16;5012107;28;20077;-69
2022/12/30 04:58:55;;;;;;;9.57;9.07;;;;;;;-1.19;100.00;101206.72;5011281;28;20022;-69
2022/12/30 05:01:21;;;;;;;9.40;8.98;;;;;;;-1.18;100.00;101205.78;5011781;28;20037;-69
2022/12/30 05:03:46;;;;;;;9.30;8.90;;;;;;;-1.15;100.00;101204.81;5024999;28;20038;-69
2022/12/30 05:06:12;;;;;;;9.77;9.27;;;;;;;-1.28;100.00;101202.00;5010255;28;20052;-69
2022/12/30 05:08:37;;;;;;;10.20;9.70;;;;;;;-1.26;100.00;101200.16;5005082;28;20033;-69
2022/12/30 05:11:03;;;;;;;9.65;9.15;;;;;;;-1.24;100.00;101200.09;5011870;28;20071;-69
2022/12/30 05:13:28;;;;;;;10.60;10.00;;;;;;;-1.26;100.00;101207.97;5011511;28;20034;-69
2022/12/30 05:15:54;;;;;;;9.63;9.13;;;;;;;-1.28;100.00;101202.00;5008745;28;20022;-69
2022/12/30 05:18:19;;;;;;;9.63;9.13;;;;;;;-1.20;100.00;101206.81;5011958;28;20030;-69
2022/12/30 05:20:45;;;;;;;10.88;10.25;;;;;;;-1.33;100.00;101206.63;5011259;28;20034;-69
2022/12/30 05:26:13;;;;;;;10.02;9.52;;;;;;;-1.48;100.00;101194.41;5011717;28;20370;-68
2022/12/30 05:26:14;;;;;;;9.65;9.15;;;;;;;-1.40;100.00;101207.88;5010444;28;20493;-69
2022/12/30 05:28:40;;;;;;;9.85;9.35;;;;;;;-1.45;100.00;101207.28;5010293;28;20477;-69
2022/12/30 05:31:06;;;;;;;10.15;9.65;;;;;;;-1.40;100.00;101202.66;5010513;28;20034;-68
2022/12/30 05:33:31;;;;;;;9.88;9.38;;;;;;;-1.41;100.00;101206.19;5011400;28;20099;-69
2022/12/30 05:35:57;;;;;;;9.80;9.30;;;;;;;-1.26;100.00;101209.75;5011303;28;20065;-69
2022/12/30 05:38:23;;;;;;;9.63;9.15;;;;;;;-1.33;100.00;101209.22;5012022;28;20030;-68
2022/12/30 05:40:50;;;;;;;10.65;10.05;;;;;;;-1.30;100.00;101216.03;5011662;28;20109;-68
2022/12/30 05:43:15;;;;;;;9.25;8.85;;;;;;;-1.30;100.00;101210.84;5009511;28;20030;-68
2022/12/30 05:45:41;;;;;;;10.20;9.65;;;;;;;-1.42;100.00;101200.16;5011304;28;20022;-69
2022/12/30 05:48:06;;;;;;;9.75;9.25;;;;;;;-1.38;100.00;101205.22;5010208;28;20030;-68
2022/12/30 05:50:32;;;;;;;9.73;9.23;;;;;;;-1.41;100.00;101194.00;5011210;28;20026;-69
2022/12/30 05:52:58;;;;;;;9.50;9.00;;;;;;;-1.28;100.00;101219.41;5011631;28;20083;-68
2022/12/30 05:55:23;;;;;;;9.80;9.30;;;;;;;-1.26;100.00;101217.53;5011555;28;20040;-69
2022/12/30 05:57:49;;;;;;;10.48;9.88;;;;;;;-1.23;100.00;101212.19;5010119;28;20485;-69
2022/12/30 06:00:14;;;;;;;9.20;8.80;;;;;;;-1.13;100.00;101222.00;5011448;28;20161;-68
2022/12/30 06:02:40;;;;;;;9.50;9.00;;;;;;;-1.11;100.00;101227.13;5011392;28;20511;-69
2022/12/30 06:05:06;;;;;;;9.93;9.43;;;;;;;-1.35;100.00;101224.09;5010710;28;20048;-69
2022/12/30 06:07:31;;;;;;;9.40;9.00;;;;;;;-1.36;100.00;101229.38;5011440;28;20026;-69
2022/12/30 06:09:57;;;;;;;9.80;9.30;;;;;;;-1.14;100.00;101233.34;5011098;28;20037;-70
2022/12/30 06:12:22;;;;;;;10.07;9.57;;;;;;;-1.21;100.00;101229.41;5009814;28;20108;-68
2022/12/30 06:14:47;;;;;;;10.50;9.90;;;;;;;-0.86;100.00;101237.91;5011127;28;20095;-68
2022/12/30 06:17:13;;;;;;;9.80;9.30;;;;;;;-1.04;100.00;101241.50;5010796;28;20029;-68
2022/12/30 06:19:38;;;;;;;10.35;9.75;;;;;;;-1.20;100.00;101251.91;5010911;28;20093;-68
2022/12/30 06:22:04;;;;;;;9.90;9.40;;;;;;;-0.83;100.00;101239.50;5010493;28;20029;-68
2022/12/30 06:24:29;;;;;;;9.85;9.35;;;;;;;-0.46;100.00;101243.50;5009411;28;20033;-69
2022/12/30 06:26:55;;;;;;;9.35;8.85;;;;;;;-0.85;100.00;101231.78;5010728;28;20018;-69
2022/12/30 06:29:20;;;;;;;9.50;9.00;;;;;;;-0.61;100.00;101242.59;5014443;28;20485;-69
2022/12/30 06:31:46;;;;;;;9.00;8.60;;;;;;;-0.20;100.00;101249.84;5013709;28;20062;-69
2022/12/30 06:34:11;;;;;;;8.55;8.15;;;;;;;-0.05;100.00;101248.97;5014801;28;20052;-69
2022/12/30 06:36:36;;;;;;;8.52;8.13;;;;;;;0.14;100.00;101243.50;5014400;28;20029;-69
2022/12/30 06:39:02;;;;;;;8.43;8.02;;;;;;;1.08;100.00;101246.50;5013957;28;20463;-69
2022/12/30 06:41:28;;;;;;;8.30;7.90;;;;;;;0.97;100.00;101239.34;5013211;28;20105;-70
2022/12/30 06:43:53;;;;;;;9.25;8.75;;;;;;;1.52;100.00;101241.06;5014292;28;20026;-68
2022/12/30 06:46:19;;;;;;;8.52;8.13;;;;;;;2.02;100.00;101242.16;5014547;28;20469;-68
2022/12/30 06:48:44;;;;;;;8.75;8.35;;;;;;;1.79;100.00;101227.16;5014288;28;20030;-68
2022/12/30 06:51:10;;;;;;;9.10;8.70;;;;;;;3.77;100.00;101228.09;5014463;28;20052;-70
2022/12/30 06:53:35;;;;;;;9.50;9.00;;;;;;;3.79;100.00;101226.19;5014048;28;20026;-69
2022/12/30 06:56:01;;;;;;;9.55;9.05;;;;;;;4.56;100.00;101232.56;5011487;28;20474;-69
2022/12/30 06:58:27;;;;;;;9.20;8.80;;;;;;;4.53;100.00;101213.56;5014343;28;20044;-69
2022/12/30 07:00:54;;;;;;;8.68;8.27;;;;;;;6.45;100.00;101228.63;5014157;28;20032;-70
2022/12/30 07:03:19;;;;;;;8.90;8.50;;;;;;;6.93;100.00;101227.03;5014300;28;20022;-69
2022/12/30 07:05:44;;;;;;;8.55;8.15;;;;;;;7.87;100.00;101219.53;5014296;28;20045;-69
2022/12/30 07:08:10;;;;;;;9.05;8.65;;;;;;;7.13;100.00;101214.75;5010451;28;20064;-70
2022/12/30 07:10:36;;;;;;;9.00;8.60;;;;;;;5.65;100.00;101208.91;5011646;28;20104;-69
2022/12/30 07:13:01;;;;;;;9.00;8.60;;;;;;;7.56;100.00;101217.97;5013199;28;20022;-68
2022/12/30 07:15:27;;;;;;;9.20;8.80;;;;;;;5.43;100.00;101223.00;5013963;28;20025;-69
2022/12/30 07:17:52;;;;;;;9.10;8.70;;;;;;;7.71;100.00;101228.03;5012546;28;20455;-68
2022/12/30 07:20:17;;;;;;;9.00;8.60;;;;;;;5.93;100.00;101227.75;5013741;28;20057;-69
2022/12/30 07:22:43;;;;;;;10.13;9.63;;;;;;;7.04;100.00;101233.16;5013645;28;20030;-69
2022/12/30 07:25:09;;;;;;;9.30;8.90;;;;;;;4.04;100.00;101226.03;5013837;28;20055;-69
2022/12/30 07:27:34;;;;;;;10.35;9.85;;;;;;;8.10;100.00;101235.91;5013665;28;20389;-68
2022/12/30 07:30:00;;;;;;;9.40;9.00;;;;;;;3.85;100.00;101231.81;5012995;28;20034;-69
2022/12/30 07:32:25;;;;;;;9.50;9.10;;;;;;;7.84;100.00;101245.38;5012033;28;20033;-70
2022/12/30 07:34:50;;;;;;;9.57;9.18;;;;;;;9.00;100.00;101245.97;5012230;28;20620;-69
2022/12/30 07:37:16;;;;;;;9.23;8.82;;;;;;;8.55;100.00;101243.22;5010561;28;20119;-68
2022/12/30 07:39:41;;;;;;;9.48;9.07;;;;;;;8.53;100.00;101240.72;5012684;28;20101;-70
2022/12/30 07:42:07;;;;;;;10.18;9.68;;;;;;;8.42;100.00;101242.69;5012604;28;20392;-70
2022/12/30 07:44:32;;;;;;;10.35;9.85;;;;;;;6.43;100.00;101244.56;5012038;28;20397;-70
2022/12/30 07:46:58;;;;;;;9.70;9.30;;;;;;;10.92;100.00;101259.53;5012084;28;20369;-70
2022/12/30 07:49:23;;;;;;;9.52;9.13;;;;;;;9.25;100.00;101246.25;5013304;28;20067;-70
2022/12/30 07:51:49;;;;;;;9.43;9.02;;;;;;;11.19;100.00;101253.19;5011741;28;20033;-70
2022/12/30 07:54:14;;;;;;;9.77;9.38;;;;;;;11.90;100.00;101242.06;5012885;28;20132;-70
2022/12/30 07:56:40;;;;;;;9.73;9.32;;;;;;;13.36;100.00;101248.84;5013010;28;20504;-68
2022/12/30 07:59:05;;;;;;;10.27;9.80;;;;;;;13.48;90.95;101254.63;5013096;28;20026;-68
2022/12/30 08:01:30;;;;;;;10.50;10.00;;;;;;;11.85;94.47;101253.19;5012965;28;20088;-69
2022/12/30 08:03:56;;;;;;;9.90;9.50;;;;;;;13.28;92.06;101264.88;5010849;28;20052;-69
2022/12/30 08:06:21;;;;;;;10.43;9.93;;;;;;;14.26;86.70;101261.53;5010623;28;20042;-69
2022/12/30 08:08:47;;;;;;;10.40;9.90;;;;;;;12.92;78.77;101261.84;5012706;28;20084;-68
2022/12/30 08:11:14;;;;;;;10.50;10.00;;;;;;;12.46;88.65;101264.28;5013081;28;20504;-69
2022/12/30 08:13:42;;;;;;;10.65;10.15;;;;;;;11.69;99.91;101255.81;5012734;28;20029;-70
2022/12/30 08:16:10;;;;;;;10.15;9.75;;;;;;;14.20;83.57;101265.75;5010655;28;20076;-70
2022/12/30 08:18:36;;;;;;;10.80;10.30;;;;;;;13.65;81.42;101263.34;5010558;28;20026;-70
2022/12/30 08:21:04;;;;;;;10.85;10.35;;;;;;;14.44;76.15;101267.34;5010835;28;20030;-69
2022/12/30 08:23:30;;;;;;;10.20;9.77;;;;;;;13.94;73.58;101267.97;5010375;28;20037;-70
2022/12/30 08:25:56;;;;;;;10.88;10.38;;;;;;;14.71;77.62;101271.28;5011189;28;20030;-70
2022/12/30 08:28:22;;;;;;;10.52;10.02;;;;;;;13.66;77.29;101280.97;5012789;28;20103;-70
2022/12/30 08:30:47;;;;;;;10.40;9.90;;;;;;;14.03;79.84;101272.25;5012518;28;20473;-70
2022/12/30 08:33:13;;;;;;;10.57;10.07;;;;;;;13.87;72.14;101265.19;5011428;28;20040;-70
2022/12/30 08:35:39;;;;;;;10.50;10.00;;;;;;;14.30;78.88;101262.81;5012274;28;20022;-70
2022/12/30 08:38:04;;;;;;;10.70;10.20;;;;;;;14.70;74.14;101264.31;5010793;28;20113;-69
2022/12/30 08:40:33;;;;;;;10.68;10.18;;;;;;;14.34;79.88;101259.63;5011632;28;20370;-69
2022/12/30 08:42:59;;;;;;;10.65;10.15;;;;;;;13.66;74.73;101255.19;5012325;28;20108;-69
2022/12/30 08:45:25;;;;;;;11.30;10.80;;;;;;;15.13;66.52;101270.66;5011964;28;20033;-68
2022/12/30 08:47:51;;;;;;;10.82;10.32;;;;;;;7.91;100.00;101259.69;5010521;28;20025;-68
2022/12/30 08:50:16;;;;;;;10.57;10.07;;;;;;;7.50;100.00;101247.59;5014509;28;20032;-70
2022/12/30 08:52:42;;;;;;;10.75;10.25;;;;;;;7.97;100.00;101244.13;5011521;28;20022;-69
2022/12/30 08:55:07;;;;;;;10.95;10.45;;;;;;;8.17;100.00;101252.88;5011169;28;20032;-69
2022/12/30 08:57:33;;;;;;;11.07;10.57;;;;;;;8.30;100.00;101250.78;5011971;28;20422;-70
2022/12/30 08:59:59;;;;;;;10.82;10.32;;;;;;;11.97;100.00;101248.38;5010737;28;20084;-69
2022/12/30 09:02:24;;;;;;;10.43;9.93;;;;;;;9.85;100.00;101235.94;5010650;28;20059;-69
2022/12/30 09:04:50;;;;;;;10.65;10.15;;;;;;;8.63;100.00;101245.16;5011591;28;20028;-69
2022/12/30 09:07:15;;;;;;;10.27;9.77;;;;;;;9.30;100.00;101254.56;5011840;28;20030;-70
2022/12/30 09:09:40;;;;;;;10.60;10.10;;;;;;;8.85;100.00;101250.91;5011612;28;20036;-68
2022/12/30 09:12:07;;;;;;;10.90;10.40;;;;;;;12.51;100.00;101248.66;5011314;28;20040;-70
2022/12/30 09:14:32;;;;;;;10.80;10.30;;;;;;;12.63;97.13;101249.09;5042711;28;20373;-70
2022/12/30 09:16:58;;;;;;;10.85;10.35;;;;;;;12.17;93.90;101241.69;5011069;28;20101;-70
2022/12/30 09:19:23;;;;;;;10.00;9.60;;;;;;;7.97;100.00;101238.00;5011850;28;20029;-69
2022/12/30 09:21:51;;;;;;;11.25;10.75;;;;;;;8.25;100.00;101237.13;5011309;28;20022;-69
2022/12/30 09:24:16;;;;;;;10.63;10.13;;;;;;;12.06;100.00;101242.06;5011382;28;20055;-69
2022/12/30 09:26:42;;;;;;;10.40;9.90;;;;;;;10.45;100.00;101234.25;5010451;28;20033;-70
2022/12/30 09:29:07;;;;;;;10.40;9.90;;;;;;;10.31;100.00;101234.81;5009564;28;20393;-70
2022/12/30 09:31:33;;;;;;;10.38;9.88;;;;;;;7.93;100.00;101232.19;5011370;28;20393;-69
2022/12/30 09:33:58;;;;;;;10.00;9.57;;;;;;;8.27;100.00;101227.25;5011801;28;20026;-71
2022/12/30 09:36:24;;;;;;;10.45;9.95;;;;;;;6.27;100.00;101234.50;5011819;28;20026;-69
2022/12/30 09:38:50;;;;;;;10.63;10.13;;;;;;;6.24;100.00;101239.19;5011553;28;20036;-69
2022/12/30 09:43:15;;;;;;;10.85;10.35;;;;;;;5.45;100.00;101233.41;5011752;28;20029;-69
2022/12/30 09:44:22;;;;;;;11.25;10.70;;;;;;;5.37;100.00;101238.47;5009807;28;20040;-69
2022/12/30 09:46:54;;;;;;;12.45;11.75;;;;;;;6.57;100.00;101230.22;5007713;28;20402;-70
2022/12/30 09:49:29;;;;;;;11.80;11.20;;;;;;;6.63;100.00;101219.16;5009369;28;20080;-70
2022/12/30 09:52:01;;;;;;;11.05;10.45;;;;;;;5.53;100.00;101218.69;5010815;28;20033;-70
2022/12/30 09:54:28;;;;;;;12.07;11.38;;;;;;;6.18;100.00;101223.91;5011010;28;20105;-69
2022/12/30 09:57:30;;;;;;;11.38;10.77;;;;;;;7.12;100.00;101221.00;5008854;28;20065;-70
2022/12/30 09:59:48;;;;;;;11.32;10.73;;;;;;;5.57;100.00;101208.72;5010846;28;20080;-71
2022/12/30 10:02:28;;;;;;;11.10;10.50;;;;;;;6.13;100.00;101208.47;5010010;28;20033;-69
2022/12/30 10:04:59;;;;;;;12.35;11.65;;;;;;;6.82;100.00;101207.84;5012426;28;20107;-70
2022/12/30 10:07:44;;;;;;;11.05;10.45;;;;;;;5.70;100.00;101204.13;5014613;28;20026;-69
2022/12/30 10:10:27;;;;;;;11.40;10.80;;;;;;;6.27;100.00;101202.88;5014640;28;20054;-70
2022/12/30 10:13:07;;;;;;;10.75;10.15;;;;;;;6.46;100.00;101201.31;5012705;28;20056;-69
2022/12/30 10:15:55;;;;;;;11.05;10.45;;;;;;;7.06;100.00;101195.16;5014500;28;20028;-69
2022/12/30 10:18:43;;;;;;;11.15;10.55;;;;;;;6.95;100.00;101191.78;5013067;28;20026;-70
2022/12/30 10:21:24;;;;;;;9.55;9.13;;;;;;;7.07;100.00;101199.47;5012679;28;20038;-69
2022/12/30 10:24:27;;;;;;;9.68;9.20;;;;;;;6.91;100.00;101193.88;5014826;28;20056;-71
2022/12/30 10:26:57;;;;;;;9.90;9.40;;;;;;;7.06;100.00;101194.31;5014603;28;20045;-70
2022/12/30 10:29:36;;;;;;;9.95;9.45;;;;;;;7.18;100.00;101187.94;5014959;28;20152;-70
2022/12/30 10:32:24;;;;;;;11.35;10.70;;;;;;;7.02;100.00;101187.63;5014298;28;20051;-70
2022/12/30 10:35:01;;;;;;;10.00;9.50;;;;;;;6.71;100.00;101184.22;5014472;28;20065;-71
2022/12/30 10:37:32;;;;;;;9.80;9.30;;;;;;;6.79;100.00;101179.94;5011271;28;20025;-69
2022/12/30 10:39:58;;;;;;;9.90;9.40;;;;;;;6.53;100.00;101173.44;5014213;28;20448;-69
2022/12/30 10:42:48;;;;;;;10.30;9.80;;;;;;;7.01;100.00;101178.06;5014250;28;20032;-70
2022/12/30 10:45:51;;;;;;;11.35;10.73;;;;;;;6.64;100.00;101170.72;5013963;28;20064;-70
2022/12/30 10:48:39;;;;;;;9.80;9.30;;;;;;;6.68;100.00;101164.22;5013928;28;20018;-69
2022/12/30 10:51:06;;;;;;;9.98;9.48;;;;;;;6.76;100.00;101166.22;5014200;28;20026;-70
2022/12/30 10:53:31;;;;;;;9.80;9.30;;;;;;;6.67;100.00;101165.19;5013736;28;20030;-69
2022/12/30 10:56:03;;;;;;;10.13;9.63;;;;;;;6.90;100.00;101160.53;5013645;28;20083;-69
2022/12/30 10:58:31;;;;;;;9.95;9.45;;;;;;;6.14;100.00;101170.63;5014321;28;20517;-71
2022/12/30 11:00:59;;;;;;;10.00;9.50;;;;;;;6.16;100.00;101167.88;5013882;28;20034;-69
2022/12/30 11:03:35;;;;;;;10.63;10.13;;;;;;;6.09;100.00;101168.38;5012749;28;20034;-69
2022/12/30 11:06:19;;;;;;;9.90;9.40;;;;;;;5.69;100.00;101156.88;5013922;28;20490;-69
2022/12/30 11:08:44;;;;;;;10.85;10.27;;;;;;;5.72;100.00;101153.97;5012742;28;20026;-70
2022/12/30 11:11:10;;;;;;;9.73;9.25;;;;;;;5.91;100.00;101164.69;5011729;28;20037;-69
2022/12/30 11:16:32;;;;;;;9.93;9.43;;;;;;;5.74;100.00;101166.06;5013949;28;20032;-70
2022/12/30 11:19:01;;;;;;;9.98;9.48;;;;;;;6.15;100.00;101174.94;5013863;28;20038;-70
2022/12/30 11:21:30;;;;;;;9.55;9.15;;;;;;;6.06;100.00;101173.91;5013929;28;20057;-71
2022/12/30 11:24:01;;;;;;;9.40;9.00;;;;;;;6.08;100.00;101182.53;5013783;28;20064;-71
2022/12/30 11:26:29;;;;;;;10.93;10.32;;;;;;;6.19;100.00;101181.63;5012246;28;20484;-70
2022/12/30 11:29:08;;;;;;;10.15;9.65;;;;;;;6.28;100.00;101178.19;5013267;28;20041;-70
2022/12/30 11:31:37;;;;;;;9.70;9.20;;;;;;;6.15;100.00;101180.22;5012159;28;20160;-69
2022/12/30 11:34:05;;;;;;;10.13;9.63;;;;;;;6.18;100.00;101192.31;5014385;28;20038;-69
2022/12/30 11:36:32;;;;;;;11.73;11.02;;;;;;;6.00;100.00;101184.97;5013053;28;20439;-70
2022/12/30 11:39:03;;;;;;;10.02;9.52;;;;;;;6.66;100.00;101187.25;5012848;28;20048;-69
2022/12/30 11:41:29;;;;;;;9.45;9.00;;;;;;;6.13;100.00;101186.56;5014131;28;20183;-69
2022/12/30 11:44:00;;;;;;;10.50;9.95;;;;;;;6.29;100.00;101195.69;5013947;28;20033;-69
2022/12/30 11:46:40;;;;;;;9.65;9.15;;;;;;;6.26;100.00;101187.22;5013171;28;20029;-70
2022/12/30 11:49:20;;;;;;;10.05;9.55;;;;;;;6.71;100.00;101181.59;5011333;28;20029;-70
2022/12/30 11:51:49;;;;;;;11.07;10.48;;;;;;;7.12;100.00;101180.56;5011923;28;20319;-69
2022/12/30 11:54:27;;;;;;;8.93;8.52;;;;;;;6.90;100.00;101192.16;5013010;28;20061;-69
2022/12/30 11:57:00;;;;;;;10.07;9.57;;;;;;;6.57;100.00;101188.88;5001420;28;20044;-69
2022/12/30 11:59:32;;;;;;;10.23;9.73;;;;;;;6.45;100.00;101187.28;5011088;28;20417;-69
2022/12/30 12:02:15;;;;;;;9.82;9.32;;;;;;;6.58;100.00;101187.06;5012670;28;20048;-69
2022/12/30 12:04:41;;;;;;;10.65;10.10;;;;;;;6.58;100.00;101187.06;5002918;28;20441;-70
2022/12/30 12:07:16;;;;;;;9.73;9.25;;;;;;;6.60;100.00;101190.41;5002397;28;20030;-70
2022/12/30 12:09:57;;;;;;;10.07;9.57;;;;;;;6.58;100.00;101187.06;5012758;28;20029;-69
2022/12/30 12:12:27;;;;;;;9.48;9.07;;;;;;;6.58;100.00;101193.19;5011741;28;20057;-69
2022/12/30 12:15:19;;;;;;;9.57;9.07;;;;;;;6.74;100.00;101197.13;5012852;28;20022;-70
2022/12/30 12:18:19;;;;;;;10.23;9.73;;;;;;;7.32;100.00;101194.63;5012595;28;20030;-69
2022/12/30 12:21:09;;;;;;;10.48;9.98;;;;;;;6.86;100.00;101194.25;5008757;28;20038;-69